Time;durP1;ratioP1;P1;durP2;ratioP2;P2;SDS_P1;SDS_P2;PMS_P1;PMS_P2;Temp;Humidity;BMP_temperature;BMP_pressure;BME280_temperature;BME280_humidity;BME280_pressure;Samples;Min_cycle;Max_cycle;Signal;HPM_P1;HPM_P2
2022/11/25 00:01:56;;;;;;;69.60;22.80;;;;;;;1.53;100.00;100698.42;107370;1267;60582;-69
2022/11/25 00:04:27;;;;;;;76.20;20.00;;;;;;;1.51;100.00;100687.31;107297;1267;72557;-68
2022/11/25 00:06:57;;;;;;;41.80;13.40;;;;;;;1.61;100.00;100693.52;107527;1264;61110;-69
2022/11/25 00:09:25;;;;;;;78.40;21.30;;;;;;;1.62;100.00;100704.64;107358;1268;70444;-70
2022/11/25 00:11:54;;;;;;;69.90;22.00;;;;;;;1.62;100.00;100702.42;107357;1266;64135;-69
2022/11/25 00:14:23;;;;;;;74.10;22.70;;;;;;;1.63;100.00;100707.34;107391;1270;57624;-69
2022/11/25 00:16:51;;;;;;;75.10;22.40;;;;;;;1.69;100.00;100713.64;107470;1272;57656;-68
2022/11/25 00:19:20;;;;;;;76.90;24.10;;;;;;;1.72;100.00;100717.15;107527;1273;62117;-68
2022/11/25 00:21:49;;;;;;;71.90;21.20;;;;;;;1.65;100.00;100717.75;107675;1261;60934;-68
2022/11/25 00:24:17;;;;;;;81.70;25.10;;;;;;;1.66;100.00;100720.44;107547;1263;70363;-68
2022/11/25 00:26:46;;;;;;;70.50;23.70;;;;;;;1.65;100.00;100720.83;107534;1266;62824;-69
2022/11/25 00:29:15;;;;;;;78.00;21.70;;;;;;;1.62;100.00;100719.04;107360;1267;59720;-70
2022/11/25 00:31:43;;;;;;;42.30;15.10;;;;;;;1.65;100.00;100720.32;107346;1263;60162;-69
2022/11/25 00:34:13;;;;;;;46.20;14.80;;;;;;;1.67;100.00;100721.10;107434;1266;62418;-69
2022/11/25 00:36:42;;;;;;;68.10;21.50;;;;;;;1.62;100.00;100719.23;107330;1275;70263;-69
2022/11/25 00:39:16;;;;;;;52.20;17.60;;;;;;;1.67;100.00;100721.63;107411;1269;68074;-70
2022/11/25 00:44:35;;;;;;;78.10;24.90;;;;;;;1.44;100.00;100728.45;107338;1269;60208;-69
2022/11/25 00:47:20;;;;;;;74.40;23.00;;;;;;;1.54;100.00;100731.01;107489;1259;57656;-69
2022/11/25 00:49:53;;;;;;;73.90;23.30;;;;;;;1.61;100.00;100729.41;107597;1264;73443;-69
2022/11/25 00:52:25;;;;;;;69.80;23.20;;;;;;;1.63;100.00;100730.35;107695;1267;61853;-69
2022/11/25 00:54:54;;;;;;;68.80;23.50;;;;;;;1.61;100.00;100734.73;107423;1274;59999;-68
2022/11/25 00:57:23;;;;;;;61.20;19.80;;;;;;;1.57;100.00;100734.34;107572;1263;72087;-69
2022/11/25 00:59:51;;;;;;;73.30;24.00;;;;;;;1.58;100.00;100727.95;107413;1262;61427;-68
2022/11/25 01:02:22;;;;;;;53.80;17.20;;;;;;;1.55;100.00;100728.74;107493;1267;60832;-69
2022/11/25 01:04:51;;;;;;;56.90;19.50;;;;;;;1.57;100.00;100733.98;107619;1260;73367;-70
2022/11/25 01:07:19;;;;;;;69.30;23.00;;;;;;;1.56;100.00;100739.86;107506;1264;62347;-69
2022/11/25 01:09:49;;;;;;;66.90;21.90;;;;;;;1.57;100.00;100742.25;107502;1270;58984;-70
2022/11/25 01:12:18;;;;;;;62.60;19.20;;;;;;;1.64;100.00;100747.84;107476;1265;63229;-71
2022/11/25 01:14:47;;;;;;;58.80;21.50;;;;;;;1.60;100.00;100742.64;107511;1258;61915;-70
2022/11/25 01:17:15;;;;;;;67.70;21.90;;;;;;;1.63;100.00;100743.57;107488;1263;61315;-71
2022/11/25 01:19:44;;;;;;;52.50;15.90;;;;;;;1.59;100.00;100741.80;107524;1272;62014;-70
2022/11/25 01:22:13;;;;;;;65.30;22.30;;;;;;;1.62;100.00;100739.81;107570;1263;60694;-68
2022/11/25 01:24:43;;;;;;;70.50;22.00;;;;;;;1.65;100.00;100737.49;107578;1267;69348;-70
2022/11/25 01:27:11;;;;;;;66.70;23.60;;;;;;;1.66;100.00;100738.48;107467;1272;74125;-69
2022/11/25 01:29:42;;;;;;;64.10;22.20;;;;;;;1.67;100.00;100738.27;107573;1273;57112;-69
2022/11/25 01:32:13;;;;;;;58.80;20.70;;;;;;;1.67;100.00;100735.71;107571;1259;60614;-67
2022/11/25 01:34:42;;;;;;;66.00;23.50;;;;;;;1.65;100.00;100737.48;107476;1269;73211;-69
2022/11/25 01:37:11;;;;;;;63.20;23.70;;;;;;;1.53;100.00;100741.16;107466;1262;73208;-69
2022/11/25 01:39:40;;;;;;;73.20;24.90;;;;;;;1.62;100.00;100743.95;107526;1270;59685;-69
2022/11/25 01:42:08;;;;;;;63.80;24.50;;;;;;;1.60;100.00;100746.44;107488;1263;73871;-69
2022/11/25 01:44:38;;;;;;;70.80;24.60;;;;;;;1.67;100.00;100744.10;107568;1263;57650;-69
2022/11/25 01:47:23;;;;;;;64.20;22.50;;;;;;;1.75;100.00;100745.88;107425;1273;57171;-69
2022/11/25 01:50:08;;;;;;;47.00;18.80;;;;;;;1.73;100.00;100744.43;107530;1266;71947;-69
2022/11/25 01:52:44;;;;;;;57.30;20.40;;;;;;;1.70;100.00;100745.56;107714;1265;61323;-69
2022/11/25 01:55:20;;;;;;;53.60;21.60;;;;;;;1.69;100.00;100750.23;107381;1269;60489;-69
2022/11/25 01:58:13;;;;;;;60.40;22.30;;;;;;;1.60;100.00;100747.61;107480;1266;73262;-70
2022/11/25 02:00:49;;;;;;;58.80;22.20;;;;;;;1.65;100.00;100750.70;107481;1259;57120;-69
2022/11/25 02:03:28;;;;;;;60.00;23.90;;;;;;;1.67;100.00;100750.80;107511;1264;60435;-68
2022/11/25 02:06:24;;;;;;;58.20;22.40;;;;;;;1.69;100.00;100752.97;107517;1266;61972;-69
2022/11/25 02:08:57;;;;;;;45.80;18.90;;;;;;;1.64;100.00;100757.94;107743;1258;70127;-67
2022/11/25 02:11:29;;;;;;;55.10;20.10;;;;;;;1.65;100.00;100753.29;107423;1264;70856;-68
2022/11/25 02:13:59;;;;;;;50.10;20.70;;;;;;;1.50;100.00;100759.13;107573;1261;63124;-68
2022/11/25 02:16:28;;;;;;;38.30;16.20;;;;;;;1.54;100.00;100763.61;107561;1269;57684;-68
2022/11/25 02:18:57;;;;;;;48.80;21.20;;;;;;;1.56;100.00;100759.25;107446;1268;60420;-68
2022/11/25 02:21:42;;;;;;;46.90;19.80;;;;;;;1.64;100.00;100765.52;107454;1266;62517;-70
2022/11/25 02:24:45;;;;;;;54.50;21.30;;;;;;;1.61;100.00;100765.09;107649;1264;72261;-69
2022/11/25 02:27:13;;;;;;;49.00;21.50;;;;;;;1.64;100.00;100773.26;107543;1268;70886;-68
2022/11/25 02:29:43;;;;;;;31.70;12.20;;;;;;;1.55;100.00;100774.89;107465;1261;74081;-69
2022/11/25 02:32:12;;;;;;;48.00;21.20;;;;;;;1.52;100.00;100782.40;107521;1263;61081;-68
2022/11/25 02:34:46;;;;;;;48.50;20.20;;;;;;;1.56;100.00;100775.06;107687;1269;61219;-69
2022/11/25 02:37:19;;;;;;;50.60;20.50;;;;;;;1.59;100.00;100780.08;107555;1267;73119;-67
2022/11/25 02:39:50;;;;;;;35.80;14.40;;;;;;;1.61;100.00;100778.82;107720;1258;60731;-69
2022/11/25 02:42:21;;;;;;;47.60;20.10;;;;;;;1.60;100.00;100782.12;107469;1269;60029;-69
2022/11/25 02:44:50;;;;;;;43.70;17.80;;;;;;;1.59;100.00;100785.60;107546;1266;71922;-68
2022/11/25 02:47:19;;;;;;;31.80;14.90;;;;;;;1.58;100.00;100788.36;107635;1263;57715;-69
2022/11/25 02:49:48;;;;;;;42.10;15.70;;;;;;;1.57;100.00;100785.48;107643;1266;60487;-69
2022/11/25 02:52:16;;;;;;;35.80;17.50;;;;;;;1.57;100.00;100789.94;107657;1261;61915;-69
2022/11/25 02:54:45;;;;;;;36.90;16.80;;;;;;;1.50;100.00;100790.02;107678;1262;61594;-70
2022/11/25 02:57:15;;;;;;;38.60;16.50;;;;;;;1.53;100.00;100792.15;107635;1270;69430;-70
2022/11/25 02:59:44;;;;;;;32.80;15.90;;;;;;;1.51;100.00;100795.48;107656;1268;63678;-70
2022/11/25 03:02:14;;;;;;;40.60;17.50;;;;;;;1.48;100.00;100794.37;107670;1260;57163;-70
2022/11/25 03:04:43;;;;;;;29.40;14.70;;;;;;;1.49;100.00;100797.06;107563;1266;59229;-71
2022/11/25 03:07:14;;;;;;;38.40;17.60;;;;;;;1.54;100.00;100801.73;107567;1258;63022;-71
2022/11/25 03:09:43;;;;;;;32.30;16.10;;;;;;;1.52;100.00;100806.92;107767;1266;61911;-69
2022/11/25 03:12:18;;;;;;;34.40;14.30;;;;;;;1.49;100.00;100814.59;107579;1266;59116;-68
2022/11/25 03:14:47;;;;;;;39.80;17.90;;;;;;;1.54;100.00;100815.79;107550;1271;73089;-69
2022/11/25 03:17:16;;;;;;;37.30;16.80;;;;;;;1.52;100.00;100827.18;107556;1266;62239;-69
2022/11/25 03:19:44;;;;;;;28.50;13.30;;;;;;;1.56;100.00;100824.48;107534;1266;61633;-69
2022/11/25 03:22:13;;;;;;;28.10;14.10;;;;;;;1.55;100.00;100833.27;107669;1263;63676;-70
2022/11/25 03:24:42;;;;;;;41.60;15.90;;;;;;;1.42;100.00;100833.69;107723;1264;71894;-69
2022/11/25 03:27:10;;;;;;;14.10;8.00;;;;;;;1.53;100.00;100841.60;107433;1266;70924;-71
2022/11/25 03:29:39;;;;;;;18.40;10.20;;;;;;;1.48;100.00;100842.11;107541;1267;73339;-70
2022/11/25 03:32:08;;;;;;;28.30;13.60;;;;;;;1.50;100.00;100840.66;107522;1263;62141;-69
2022/11/25 03:34:38;;;;;;;24.00;11.10;;;;;;;1.50;100.00;100843.75;107551;1263;60933;-70
2022/11/25 03:37:06;;;;;;;18.50;8.60;;;;;;;1.53;100.00;100842.64;107541;1263;73333;-71
2022/11/25 03:39:35;;;;;;;28.30;14.20;;;;;;;1.47;100.00;100842.98;107662;1261;72749;-70
2022/11/25 03:42:05;;;;;;;20.90;10.20;;;;;;;1.47;100.00;100840.40;107603;1269;70832;-69
2022/11/25 03:44:33;;;;;;;26.00;13.30;;;;;;;1.46;100.00;100841.46;107626;1263;73833;-71
2022/11/25 03:47:03;;;;;;;23.30;13.20;;;;;;;1.44;100.00;100839.64;107511;1266;57072;-69
2022/11/25 03:49:32;;;;;;;26.40;13.50;;;;;;;1.48;100.00;100841.58;107523;1264;60767;-68
2022/11/25 03:52:01;;;;;;;26.20;12.80;;;;;;;1.34;100.00;100841.67;107591;1262;62724;-68
2022/11/25 03:54:30;;;;;;;19.70;10.80;;;;;;;1.39;100.00;100840.52;107684;1263;63037;-69
2022/11/25 03:57:12;;;;;;;30.70;13.90;;;;;;;1.33;100.00;100834.52;107613;1265;60958;-68
2022/11/25 03:59:41;;;;;;;27.70;14.30;;;;;;;1.43;100.00;100845.84;107644;1270;62239;-68
2022/11/25 04:02:10;;;;;;;28.10;13.20;;;;;;;1.44;100.00;100847.89;107357;1274;62125;-70
2022/11/25 04:04:42;;;;;;;29.70;16.00;;;;;;;1.39;100.00;100853.55;107568;1273;61604;-70
2022/11/25 04:07:11;;;;;;;24.20;11.30;;;;;;;1.36;100.00;100860.15;107537;1274;73247;-70
2022/11/25 04:09:40;;;;;;;28.10;12.40;;;;;;;1.45;100.00;100860.55;107679;1269;72464;-70
2022/11/25 04:15:49;;;;;;;30.30;15.00;;;;;;;1.39;100.00;100875.86;107219;1271;63612;-71
2022/11/25 04:18:19;;;;;;;20.50;10.20;;;;;;;1.41;100.00;100880.09;107215;1269;57523;-71
2022/11/25 04:20:49;;;;;;;21.80;12.50;;;;;;;1.42;100.00;100882.61;107422;1268;60991;-70
2022/11/25 04:23:18;;;;;;;15.00;8.80;;;;;;;1.45;100.00;100889.38;107616;1266;72193;-71
2022/11/25 04:25:57;;;;;;;29.80;14.20;;;;;;;1.49;100.00;100889.08;107747;1258;71334;-70
2022/11/25 04:28:31;;;;;;;30.20;14.50;;;;;;;1.46;100.00;100885.75;107681;1270;59875;-71
2022/11/25 04:31:05;;;;;;;18.80;10.90;;;;;;;1.43;100.00;100886.35;107572;1258;63185;-71
2022/11/25 04:33:34;;;;;;;20.30;11.40;;;;;;;1.46;100.00;100887.81;107515;1273;57023;-71
2022/11/25 04:36:03;;;;;;;23.20;13.10;;;;;;;1.39;100.00;100890.09;107534;1258;60281;-71
2022/11/25 04:38:32;;;;;;;26.20;13.50;;;;;;;1.44;100.00;100894.74;107428;1275;72568;-72
2022/11/25 04:41:02;;;;;;;25.30;12.50;;;;;;;1.45;100.00;100900.52;107617;1265;61422;-71
2022/11/25 04:43:33;;;;;;;21.50;12.50;;;;;;;1.49;100.00;100903.16;107505;1263;69694;-71
2022/11/25 04:46:06;;;;;;;23.10;13.10;;;;;;;1.44;100.00;100902.80;107511;1266;63328;-72
2022/11/25 04:48:45;;;;;;;17.20;9.80;;;;;;;1.46;100.00;100902.73;107495;1269;56994;-72
2022/11/25 04:51:14;;;;;;;19.80;11.60;;;;;;;1.43;100.00;100901.27;107474;1276;61619;-71
2022/11/25 04:53:44;;;;;;;21.90;12.90;;;;;;;1.44;100.00;100906.23;107482;1263;73413;-71
2022/11/25 04:56:18;;;;;;;26.10;13.80;;;;;;;1.39;100.00;100906.40;107612;1264;61684;-72
2022/11/25 05:01:36;;;;;;;18.60;10.40;;;;;;;1.41;100.00;100907.54;107582;1263;62494;-70
2022/11/25 05:04:20;;;;;;;23.20;12.30;;;;;;;1.49;100.00;100911.40;107627;1266;62057;-70
2022/11/25 05:06:50;;;;;;;21.40;13.10;;;;;;;1.45;100.00;100918.39;107487;1272;57143;-69
2022/11/25 05:09:20;;;;;;;18.30;10.60;;;;;;;1.40;100.00;100919.05;107388;1273;71840;-70
2022/11/25 05:11:55;;;;;;;24.00;13.50;;;;;;;1.47;100.00;100922.95;107614;1264;72519;-71
2022/11/25 05:14:24;;;;;;;23.40;13.50;;;;;;;1.43;100.00;100927.73;107653;1266;70871;-71
2022/11/25 05:16:53;;;;;;;20.10;11.30;;;;;;;1.48;100.00;100928.60;107504;1261;72911;-71
2022/11/25 05:19:22;;;;;;;19.60;10.40;;;;;;;1.47;100.00;100927.09;107617;1263;57688;-69
2022/11/25 05:21:51;;;;;;;19.20;12.30;;;;;;;1.45;100.00;100932.61;107452;1269;57562;-74
2022/11/25 05:24:20;;;;;;;12.80;8.00;;;;;;;1.44;100.00;100935.92;107609;1269;62946;-74
2022/11/25 05:26:50;;;;;;;19.30;11.00;;;;;;;1.43;100.00;100938.52;107683;1264;72231;-72
2022/11/25 05:29:20;;;;;;;17.20;10.10;;;;;;;1.41;100.00;100946.52;107639;1263;70591;-73
2022/11/25 05:31:48;;;;;;;14.70;8.80;;;;;;;1.39;100.00;100953.59;107582;1264;73368;-72
2022/11/25 05:34:17;;;;;;;17.70;10.20;;;;;;;1.50;100.00;100958.42;107579;1272;57236;-73
2022/11/25 05:36:46;;;;;;;21.50;12.40;;;;;;;1.49;100.00;100957.59;107594;1274;57676;-74
2022/11/25 05:39:18;;;;;;;24.90;13.50;;;;;;;1.52;100.00;100959.87;107512;1272;62197;-78
2022/11/25 05:42:06;;;;;;;15.10;8.20;;;;;;;1.58;100.00;100967.59;107688;1258;71378;-73
2022/11/25 05:44:35;;;;;;;26.60;16.90;;;;;;;1.48;100.00;100974.07;107649;1272;61118;-73
2022/11/25 05:47:04;;;;;;;20.00;11.90;;;;;;;1.49;100.00;100971.30;107484;1264;63085;-72
2022/11/25 05:49:33;;;;;;;21.10;13.70;;;;;;;1.49;100.00;100977.98;107618;1267;57513;-73
2022/11/25 05:52:03;;;;;;;20.70;12.60;;;;;;;1.46;100.00;100971.23;107532;1270;61036;-72
2022/11/25 05:54:35;;;;;;;19.60;12.70;;;;;;;1.51;100.00;100972.27;107445;1269;63364;-73
2022/11/25 05:57:04;;;;;;;21.20;12.30;;;;;;;1.49;100.00;100973.70;107593;1257;72145;-71
2022/11/25 05:59:41;;;;;;;21.90;13.30;;;;;;;1.43;100.00;100973.74;107463;1265;71045;-73
2022/11/25 06:02:14;;;;;;;;;;;;;;;1.49;100.00;100982.80;107448;1272;64929;-73
2022/11/25 06:04:43;;;;;;;13.40;7.80;;;;;;;1.44;100.00;100978.52;107636;1262;57654;-74
2022/11/25 06:07:12;;;;;;;18.10;10.80;;;;;;;1.49;100.00;100989.66;107409;1263;60178;-74
2022/11/25 06:09:41;;;;;;;18.60;10.90;;;;;;;1.46;100.00;100987.55;107463;1266;62014;-74
2022/11/25 06:12:10;;;;;;;20.50;12.50;;;;;;;1.51;100.00;100995.46;107611;1267;71176;-73
2022/11/25 06:14:45;;;;;;;20.10;11.20;;;;;;;1.46;100.00;101002.30;107472;1273;59557;-72
2022/11/25 06:17:14;;;;;;;18.00;10.80;;;;;;;1.49;100.00;101008.56;107506;1263;63558;-73
2022/11/25 06:19:59;;;;;;;19.90;11.40;;;;;;;1.51;100.00;101016.02;107453;1272;62189;-73
2022/11/25 06:22:28;;;;;;;19.60;12.50;;;;;;;1.49;100.00;101018.35;107542;1273;58118;-76
2022/11/25 06:24:57;;;;;;;12.30;7.00;;;;;;;1.52;100.00;101030.96;107469;1267;62939;-79
2022/11/25 06:27:32;;;;;;;8.60;5.50;;;;;;;1.53;100.00;101033.66;107667;1262;71008;-73
2022/11/25 06:30:21;;;;;;;24.40;12.60;;;;;;;1.52;100.00;101034.88;107557;1264;60303;-74
2022/11/25 06:33:00;;;;;;;17.20;10.70;;;;;;;1.49;100.00;101032.59;107326;1274;73168;-73
2022/11/25 06:35:29;;;;;;;19.00;11.20;;;;;;;1.48;100.00;101028.13;107491;1272;57529;-73
2022/11/25 06:38:02;;;;;;;14.80;8.20;;;;;;;1.54;100.00;101029.17;107508;1264;57603;-74
2022/11/25 06:40:32;;;;;;;16.80;10.20;;;;;;;1.53;100.00;101032.30;107694;1265;62885;-74
2022/11/25 06:43:02;;;;;;;12.20;8.20;;;;;;;1.55;100.00;101032.05;107645;1258;71495;-72
2022/11/25 06:45:32;;;;;;;17.50;10.40;;;;;;;1.54;100.00;101031.41;107621;1265;71612;-72
2022/11/25 06:48:03;;;;;;;18.40;11.50;;;;;;;1.58;100.00;101033.70;107607;1266;63532;-72
2022/11/25 06:50:32;;;;;;;12.60;7.90;;;;;;;1.59;100.00;101032.46;107719;1269;57160;-72
2022/11/25 06:53:02;;;;;;;16.60;9.40;;;;;;;1.60;100.00;101038.09;107517;1270;60120;-73
2022/11/25 06:55:32;;;;;;;24.80;11.60;;;;;;;1.66;100.00;101034.83;107483;1266;74143;-73
2022/11/25 06:58:00;;;;;;;9.20;6.40;;;;;;;1.66;100.00;101043.91;107719;1257;71712;-73
2022/11/25 07:00:49;;;;;;;20.10;11.50;;;;;;;1.76;100.00;101047.20;107560;1267;60449;-72
2022/11/25 07:03:18;;;;;;;13.30;8.10;;;;;;;1.79;100.00;101044.37;107575;1267;72536;-72
2022/11/25 07:05:47;;;;;;;22.40;13.80;;;;;;;1.84;100.00;101049.38;107653;1257;62977;-73
2022/11/25 07:08:16;;;;;;;11.50;6.80;;;;;;;1.83;100.00;101045.11;107659;1270;59643;-73
2022/11/25 07:10:45;;;;;;;193.20;34.30;;;;;;;1.88;100.00;101044.11;107673;1266;62149;-73
2022/11/25 07:13:14;;;;;;;27.60;15.50;;;;;;;1.95;100.00;101044.05;107678;1270;72173;-72
2022/11/25 07:15:42;;;;;;;40.20;19.00;;;;;;;1.98;100.00;101048.09;107553;1266;71076;-73
2022/11/25 07:18:12;;;;;;;152.70;26.90;;;;;;;1.99;100.00;101055.80;107626;1265;62935;-81
2022/11/25 07:20:41;;;;;;;27.00;10.70;;;;;;;2.04;100.00;101060.60;107401;1271;59724;-72
2022/11/25 07:23:10;;;;;;;14.00;7.20;;;;;;;2.07;100.00;101059.31;107534;1260;61245;-72
2022/11/25 07:25:38;;;;;;;87.40;19.80;;;;;;;2.06;100.00;101062.27;107520;1274;73343;-73
2022/11/25 07:28:07;;;;;;;22.90;12.20;;;;;;;1.98;100.00;101057.00;107727;1262;62262;-73
2022/11/25 07:30:35;;;;;;;56.20;23.00;;;;;;;2.06;100.00;101062.95;107502;1274;69649;-72
2022/11/25 07:33:24;;;;;;;21.60;12.10;;;;;;;2.11;100.00;101066.23;107488;1266;62957;-73
2022/11/25 07:35:53;;;;;;;15.10;8.50;;;;;;;2.10;100.00;101068.32;107633;1268;60793;-72
2022/11/25 07:38:21;;;;;;;71.70;17.10;;;;;;;1.99;100.00;101069.03;107635;1269;60875;-74
2022/11/25 07:40:50;;;;;;;19.30;12.30;;;;;;;1.94;100.00;101068.34;107626;1262;73916;-76
2022/11/25 07:43:23;;;;;;;25.90;13.80;;;;;;;1.95;100.00;101071.89;107595;1273;73725;-73
2022/11/25 07:45:53;;;;;;;18.20;10.20;;;;;;;1.99;100.00;101075.71;107594;1267;60189;-72
2022/11/25 07:48:22;;;;;;;23.00;11.90;;;;;;;2.00;100.00;101082.05;107665;1270;63227;-72
2022/11/25 07:50:51;;;;;;;30.40;13.70;;;;;;;1.99;100.00;101080.52;107644;1261;57596;-72
2022/11/25 07:53:20;;;;;;;15.60;8.50;;;;;;;2.00;100.00;101084.59;107650;1267;60148;-72
2022/11/25 07:55:48;;;;;;;23.90;14.00;;;;;;;2.00;100.00;101081.52;107706;1261;73144;-72
2022/11/25 07:58:18;;;;;;;25.00;14.50;;;;;;;1.94;100.00;101089.95;107844;1257;70719;-72
2022/11/25 08:00:46;;;;;;;23.70;14.00;;;;;;;1.96;100.00;101088.17;107757;1261;71689;-73
2022/11/25 08:03:15;;;;;;;25.20;14.30;;;;;;;1.97;100.00;101090.20;107703;1268;63537;-72
2022/11/25 08:05:44;;;;;;;20.60;13.00;;;;;;;1.96;100.00;101094.04;107659;1274;57736;-73
2022/11/25 08:08:13;;;;;;;21.30;11.00;;;;;;;1.98;100.00;101097.90;107627;1264;57198;-73
2022/11/25 08:10:42;;;;;;;22.30;12.40;;;;;;;1.98;100.00;101100.64;107603;1266;62935;-72
2022/11/25 08:13:11;;;;;;;12.50;7.70;;;;;;;2.05;100.00;101103.02;107716;1267;70032;-73
2022/11/25 08:15:40;;;;;;;22.90;12.50;;;;;;;2.04;100.00;101104.77;107599;1263;60470;-73
2022/11/25 08:18:09;;;;;;;10.50;5.70;;;;;;;2.06;100.00;101106.06;107763;1261;73826;-72
2022/11/25 08:20:37;;;;;;;19.00;10.80;;;;;;;2.05;100.00;101104.55;107836;1261;63083;-72
2022/11/25 08:23:06;;;;;;;20.70;12.10;;;;;;;2.04;100.00;101106.13;107734;1270;57202;-72
2022/11/25 08:25:43;;;;;;;20.20;12.40;;;;;;;2.10;100.00;101104.39;107589;1263;62907;-73
2022/11/25 08:28:17;;;;;;;21.10;11.40;;;;;;;2.15;100.00;101110.11;107743;1269;72092;-73
2022/11/25 08:30:46;;;;;;;18.30;11.50;;;;;;;2.11;100.00;101110.55;107635;1271;70123;-73
2022/11/25 08:33:16;;;;;;;18.60;12.80;;;;;;;2.10;100.00;101111.42;107583;1270;73604;-72
2022/11/25 08:35:53;;;;;;;19.50;10.90;;;;;;;2.05;100.00;101113.83;107699;1266;61361;-72
2022/11/25 08:38:22;;;;;;;19.90;11.70;;;;;;;2.07;100.00;101114.10;107649;1269;60738;-74
2022/11/25 08:40:51;;;;;;;20.00;11.80;;;;;;;2.15;100.00;101113.36;107409;1266;64511;-75
2022/11/25 08:43:22;;;;;;;20.90;12.40;;;;;;;2.05;100.00;101115.54;107647;1264;70161;-74
2022/11/25 08:45:56;;;;;;;18.20;10.40;;;;;;;2.18;100.00;101120.14;107530;1271;69601;-73
2022/11/25 08:48:25;;;;;;;15.60;8.00;;;;;;;2.22;100.00;101121.39;107504;1261;74250;-72
2022/11/25 08:50:54;;;;;;;22.10;12.00;;;;;;;2.25;100.00;101123.87;107596;1269;57444;-74
2022/11/25 08:53:23;;;;;;;25.70;11.20;;;;;;;2.35;100.00;101130.95;107380;1262;59757;-75
2022/11/25 08:55:52;;;;;;;19.80;11.70;;;;;;;2.30;99.97;101132.13;107628;1263;73560;-71
2022/11/25 08:58:20;;;;;;;20.70;12.10;;;;;;;2.40;100.00;101126.16;107769;1257;72137;-73
2022/11/25 09:00:49;;;;;;;19.00;11.50;;;;;;;2.42;100.00;101127.98;107514;1264;60001;-74
2022/11/25 09:03:18;;;;;;;21.30;11.40;;;;;;;2.49;99.96;101133.27;107634;1272;63251;-72
2022/11/25 09:05:48;;;;;;;20.90;12.30;;;;;;;2.46;99.96;101130.09;107679;1266;57641;-73
2022/11/25 09:08:17;;;;;;;23.90;12.80;;;;;;;2.44;99.85;101134.27;107604;1266;61130;-72
2022/11/25 09:10:46;;;;;;;21.50;11.80;;;;;;;2.48;100.00;101132.77;107693;1266;72444;-73
2022/11/25 09:13:14;;;;;;;19.80;12.60;;;;;;;2.56;100.00;101129.06;107818;1260;72425;-73
2022/11/25 09:15:43;;;;;;;19.90;11.40;;;;;;;2.56;99.58;101132.02;107593;1265;58891;-73
2022/11/25 09:18:13;;;;;;;16.60;10.30;;;;;;;2.56;99.37;101129.42;107550;1262;63244;-73
2022/11/25 09:20:41;;;;;;;27.10;14.90;;;;;;;2.58;99.89;101136.23;107568;1263;61297;-74
2022/11/25 09:23:10;;;;;;;23.20;13.80;;;;;;;2.56;99.77;101128.73;107540;1270;57912;-73
2022/11/25 09:25:39;;;;;;;40.70;24.80;;;;;;;2.59;99.53;101128.80;107615;1267;62081;-73
2022/11/25 09:28:08;;;;;;;17.00;10.10;;;;;;;2.54;99.21;101128.79;107832;1265;71101;-72
2022/11/25 09:30:37;;;;;;;28.40;18.30;;;;;;;2.56;98.73;101128.05;107760;1262;70727;-74
2022/11/25 09:33:07;;;;;;;17.50;11.20;;;;;;;2.65;99.83;101121.75;107617;1273;73459;-74
2022/11/25 09:35:36;;;;;;;17.00;9.40;;;;;;;2.71;99.85;101122.58;107534;1269;57805;-75
2022/11/25 09:38:05;;;;;;;22.70;10.80;;;;;;;2.64;98.02;101119.52;107651;1264;57086;-72
2022/11/25 09:40:48;;;;;;;21.90;12.90;;;;;;;2.66;98.62;101127.20;107610;1266;73530;-73
2022/11/25 09:46:50;;;;;;;16.90;9.50;;;;;;;2.74;98.01;101125.23;107806;1265;71514;-74
2022/11/25 09:49:46;;;;;;;22.30;13.20;;;;;;;2.70;97.27;101124.14;107532;1266;73294;-75
2022/11/25 09:52:43;;;;;;;12.20;7.80;;;;;;;2.79;97.32;101119.05;107625;1263;57694;-75
2022/11/25 09:55:38;;;;;;;11.80;7.50;;;;;;;2.78;96.44;101131.61;107573;1260;57182;-75
2022/11/25 09:58:36;;;;;;;19.20;10.80;;;;;;;2.68;95.72;101127.13;107543;1269;62117;-73
2022/11/25 10:01:17;;;;;;;22.40;11.90;;;;;;;2.71;96.87;101130.14;107713;1257;72279;-75
2022/11/25 10:03:52;;;;;;;21.70;11.90;;;;;;;2.72;96.20;101133.88;107594;1270;61583;-73
2022/11/25 10:06:28;;;;;;;16.40;8.80;;;;;;;2.71;96.38;101142.88;107561;1268;63076;-75
2022/11/25 10:09:13;;;;;;;15.10;8.90;;;;;;;2.67;95.90;101138.70;107564;1264;57112;-75
2022/11/25 10:12:00;;;;;;;18.80;10.20;;;;;;;2.71;96.02;101140.28;107631;1257;60948;-75
2022/11/25 10:14:39;;;;;;;20.50;11.20;;;;;;;2.75;96.07;101141.86;107604;1274;72615;-73
2022/11/25 10:17:43;;;;;;;31.10;15.30;;;;;;;2.73;96.16;101136.41;107691;1265;72513;-73
2022/11/25 10:20:31;;;;;;;19.50;11.00;;;;;;;2.71;95.37;101145.63;107504;1265;70121;-73
2022/11/25 10:23:17;;;;;;;20.30;11.70;;;;;;;2.75;94.78;101142.74;107396;1270;63592;-74
2022/11/25 10:26:01;;;;;;;30.60;15.90;;;;;;;2.71;95.69;101145.95;107419;1269;57698;-74
2022/11/25 10:28:33;;;;;;;22.70;13.10;;;;;;;2.75;97.03;101148.27;107374;1269;57702;-74
2022/11/25 10:31:23;;;;;;;17.90;10.70;;;;;;;2.71;96.36;101145.27;107475;1265;73167;-75
2022/11/25 10:33:58;;;;;;;17.00;9.90;;;;;;;2.79;95.02;101143.29;107710;1261;72904;-82
2022/11/25 10:36:32;;;;;;;21.90;12.80;;;;;;;2.72;95.27;101145.23;107482;1270;70393;-84
2022/11/25 10:39:26;;;;;;;20.30;11.40;;;;;;;2.74;95.87;101145.16;107203;1279;62761;-81
2022/11/25 10:42:11;;;;;;;18.10;10.20;;;;;;;2.67;94.53;101148.16;107087;1273;60497;-83
2022/11/25 10:44:41;;;;;;;16.50;10.10;;;;;;;2.82;94.90;101149.19;106958;1274;57088;-83
2022/11/25 10:47:41;;;;;;;19.30;10.70;;;;;;;2.78;94.55;101159.14;106963;1273;72806;-81
2022/11/25 10:50:24;;;;;;;22.80;13.70;;;;;;;2.84;94.75;101160.15;107006;1280;61537;-84
2022/11/25 10:53:08;;;;;;;12.80;7.50;;;;;;;2.79;95.04;101160.85;106956;1278;68653;-84
2022/11/25 10:55:37;;;;;;;16.00;9.70;;;;;;;2.84;94.04;101161.35;106992;1273;73835;-83
2022/11/25 10:58:26;;;;;;;16.90;9.90;;;;;;;2.83;94.05;101158.61;106871;1280;57652;-81
2022/11/25 11:01:11;;;;;;;19.60;10.80;;;;;;;2.80;93.50;101163.73;107162;1275;56993;-83
2022/11/25 11:03:44;;;;;;;15.80;8.90;;;;;;;2.84;93.48;101164.29;106818;1279;71778;-83
2022/11/25 11:06:35;;;;;;;19.10;11.90;;;;;;;2.81;93.39;101166.94;106431;1283;72220;-86
2022/11/25 11:09:05;;;;;;;17.00;9.60;;;;;;;2.79;93.45;101170.64;106258;1288;59634;-84
2022/11/25 11:11:46;;;;;;;18.60;10.70;;;;;;;2.83;93.60;101173.44;105229;1285;1258274;-83
2022/11/25 11:14:19;;;;;;;21.50;11.30;;;;;;;2.80;93.64;101173.34;105496;1296;57702;-84
2022/11/25 11:16:55;;;;;;;13.50;8.00;;;;;;;2.83;93.63;101175.65;105534;1292;57169;-84
2022/11/25 11:19:29;;;;;;;13.90;8.40;;;;;;;2.86;92.30;101167.98;105412;1298;71567;-85
2022/11/25 11:22:16;;;;;;;14.70;8.10;;;;;;;2.80;91.76;101175.23;105437;1293;71636;-84
2022/11/25 11:24:45;;;;;;;20.70;12.70;;;;;;;2.79;91.81;101185.23;104925;1310;70010;-84
2022/11/25 11:27:17;;;;;;;15.90;9.30;;;;;;;2.80;91.96;101186.44;105056;1302;62516;-82
2022/11/25 11:29:46;;;;;;;17.90;10.20;;;;;;;2.79;91.72;101180.95;105067;1301;57609;-83
2022/11/25 11:32:23;;;;;;;22.00;12.80;;;;;;;2.79;92.44;101183.55;105135;1301;60380;-83
2022/11/25 11:35:47;;;;;;;20.70;11.60;;;;;;;2.77;93.06;101186.00;105184;1298;62010;-82
2022/11/25 11:38:46;;;;;;;23.90;12.60;;;;;;;2.83;93.09;101184.95;105185;1297;72277;-83
2022/11/25 11:41:52;;;;;;;25.10;14.10;;;;;;;2.79;92.85;101189.74;105120;1302;70194;-83
2022/11/25 11:44:47;;;;;;;17.50;10.80;;;;;;;2.81;93.34;101182.80;105096;1299;63175;-82